Latest Weather Observations for PORTABLE QFRK (Ravenshoe)

IDQ60801

Issued at 1:42 pm EST Monday 18 November 2019 (issued every 10 minutes, with the page automatically refreshed every 10 minutes)

About weather observations | Map of weather stations | Latest weather observations for QLD | Other Formats
Station Details ID: 250075 Name: PORTABLE QFRK (RAVENSHOE) Lat: -17.61 Lon: 145.49 Height: 922.0 m
Data from the previous 72 hours. | See also: Recent months for locations in Queensland
Date/Time
EST
Temp
°C
App
Temp
°C
Dew
Point
°C
Rel
Hum
%
Delta-T
°C
Wind Press
QNH
hPa
Press
MSL
hPa
Rain since
9am
mm
Dir  Spd
km/h
Gust
km/h
Spd
kts
Gust
kts
18/01:30pm 32.4 28.4 6.5 20 14.6 ENE 17 24 9 13 - - 0.0
18/01:20pm 32.0 28.2 5.7 19 14.6 E 15 22 8 12 - - 0.0
18/01:10pm 32.2 28.1 6.0 19 14.6 E 17 20 9 11 - - 0.0
18/01:00pm 32.2 28.4 5.7 19 14.7 ENE 15 19 8 10 - - 0.0
18/12:50pm 32.4 28.5 5.3 18 15.0 ENE 15 20 8 11 - - 0.0
18/12:40pm 32.4 29.0 5.7 19 14.8 ENE 13 17 7 9 - - 0.0
18/12:30pm 32.4 28.3 4.3 17 15.3 ENE 15 19 8 10 - - 0.0
18/12:20pm 32.3 28.2 4.2 17 15.2 ENE 15 19 8 10 - - 0.0
18/12:10pm 31.5 27.0 4.1 17 14.8 E 17 20 9 11 - - 0.0
18/12:00pm 32.3 28.4 5.3 18 14.9 ENE 15 19 8 10 - - 0.0
18/11:50am 31.8 28.1 4.7 18 14.8 E 13 19 7 10 - - 0.0
18/11:40am 31.2 26.5 3.4 17 14.8 E 17 22 9 12 - - 0.0
18/11:30am 31.2 27.4 3.9 17 14.6 ENE 13 19 7 10 - - 0.0
18/11:20am 31.1 27.0 4.1 18 14.5 E 15 19 8 10 - - 0.0
18/11:10am 31.1 26.8 3.3 17 14.8 E 15 20 8 11 - - 0.0
18/11:00am 31.2 27.4 3.8 17 14.7 E 13 17 7 9 - - 0.0
18/10:50am 31.3 27.6 4.3 18 14.6 E 13 17 7 9 - - 0.0
18/10:40am 31.2 27.8 4.1 18 14.6 ENE 11 17 6 9 - - 0.0
18/10:30am 31.2 27.3 3.2 17 14.8 ENE 13 19 7 10 - - 0.0
18/10:20am 31.1 27.7 3.9 18 14.6 ENE 11 19 6 10 - - 0.0
18/10:00am 30.3 25.9 4.7 19 13.8 E 17 20 9 11 - - 0.0
18/09:50am 30.7 27.9 5.0 19 14.0 ESE 9 15 5 8 - - 0.0
18/09:40am 29.8 28.0 5.4 21 13.3 W 4 9 2 5 - - 0.0
18/09:30am 29.5 28.4 6.7 23 12.7 S 2 7 1 4 - - 0.0
18/09:20am 28.4 27.3 6.9 25 11.9 S 2 6 1 3 - - 0.0
18/09:10am 27.9 27.0 7.7 28 11.3 W 2 6 1 3 - - 0.0
18/09:00am 27.7 26.4 7.7 28 11.2 SSW 4 7 2 4 - - 0.0
18/08:50am 27.1 26.6 7.7 29 10.8 CALM 0 2 0 1 - - 0.0
18/08:40am 26.2 25.5 8.4 32 10.0 SSW 2 6 1 3 - - 0.0
18/08:30am 25.1 23.9 8.2 34 9.4 SSW 4 4 2 2 - - 0.0
18/08:20am 24.6 24.1 9.5 38 8.6 SW 2 6 1 3 - - 0.0
18/08:10am 23.5 23.1 9.6 41 7.9 WSW 2 4 1 2 - - 0.0
18/08:00am 22.9 22.5 9.7 43 7.5 SW 2 4 1 2 - - 0.0
18/07:50am 21.8 21.2 10.5 48 6.5 W 4 6 2 3 - - 0.0
18/07:40am 21.6 21.0 10.3 48 6.4 SW 4 6 2 3 - - 0.0
18/07:30am 21.1 20.3 9.5 47 6.5 SSW 4 6 2 3 - - 0.0
18/07:20am 20.7 20.5 9.1 47 6.4 CALM 0 2 0 1 - - 0.0
18/07:10am 19.6 19.4 9.0 50 5.8 CALM 0 0 0 0 - - 0.0
18/07:00am 18.1 17.9 9.0 55 5.0 CALM 0 2 0 1 - - 0.0
18/06:50am 15.9 15.9 9.7 66 3.4 CALM 0 2 0 1 - - 0.0
18/06:40am 14.4 13.2 9.6 73 2.6 NNE 6 6 3 3 - - 0.0
18/06:30am 13.7 12.9 9.5 76 2.3 ENE 4 6 2 3 - - 0.0
18/06:20am 13.3 13.0 8.6 73 2.5 CALM 0 4 0 2 - - 0.0
18/06:10am 12.5 11.7 8.2 75 2.2 NE 2 6 1 3 - - 0.0
18/06:00am 12.2 10.9 7.7 74 2.3 ENE 4 6 2 3 - - 0.0
18/05:50am 11.7 11.2 7.9 77 2.0 CALM 0 4 0 2 - - 0.0
18/05:40am 11.3 10.9 8.2 81 1.6 CALM 0 2 0 1 - - 0.0
18/05:30am 11.3 10.9 8.1 81 1.6 CALM 0 2 0 1 - - 0.0
18/05:20am 11.5 10.6 7.8 78 1.9 NE 2 6 1 3 - - 0.0
18/05:10am 11.5 10.2 7.8 78 1.9 NE 4 6 2 3 - - 0.0
18/05:00am 11.5 10.6 7.9 78 1.8 NNE 2 6 1 3 - - 0.0
18/04:50am 11.6 11.2 8.2 79 1.8 CALM 0 2 0 1 - - 0.0
18/04:40am 11.6 10.8 8.2 79 1.8 NE 2 4 1 2 - - 0.0
18/04:30am 11.8 10.7 8.4 80 1.8 NE 4 6 2 3 - - 0.0
18/04:20am 11.8 10.6 8.1 78 1.9 NE 4 6 2 3 - - 0.0
18/04:10am 12.0 10.4 7.9 76 2.1 NE 6 7 3 4 - - 0.0
18/04:00am 12.1 10.5 7.8 75 2.2 NE 6 7 3 4 - - 0.0
18/03:50am 12.2 11.0 7.9 75 2.2 NNE 4 7 2 4 - - 0.0
18/03:40am 12.6 11.8 8.2 74 2.3 NNE 2 6 1 3 - - 0.0
18/03:30am 12.6 11.8 8.0 73 2.4 N 2 6 1 3 - - 0.0
18/03:20am 12.9 11.3 7.9 71 2.6 NE 6 6 3 3 - - 0.0
18/03:10am 13.4 11.8 8.0 70 2.8 NE 6 7 3 4 - - 0.0
18/03:00am 13.7 12.3 7.4 65 3.2 NE 4 6 2 3 - - 0.0
18/02:50am 13.7 12.4 7.8 67 3.1 NNE 4 6 2 3 - - 0.0
18/02:40am 14.2 13.6 8.9 70 2.8 N 2 4 1 2 - - 0.0
18/02:30am 14.7 13.9 8.3 65 3.4 NNW 2 4 1 2 - - 0.0
18/02:20am 14.8 13.6 8.2 64 3.5 WNW 4 4 2 2 - - 0.0
18/02:10am 14.9 13.7 8.2 64 3.5 NNW 4 4 2 2 - - 0.0
18/02:00am 15.7 14.7 8.7 63 3.7 NNE 4 4 2 2 - - 0.0
18/01:50am 17.1 15.4 8.5 57 4.6 E 7 11 4 6 - - 0.0
18/01:40am 17.0 15.2 7.9 55 4.8 E 7 7 4 4 - - 0.0
18/01:30am 17.0 15.5 8.5 57 4.6 E 6 7 3 4 - - 0.0
18/01:20am 17.2 15.8 8.7 57 4.6 E 6 7 3 4 - - 0.0
18/01:10am 17.7 16.0 8.4 54 5.0 E 7 11 4 6 - - 0.0
18/01:00am 17.9 16.5 8.7 55 5.0 E 6 7 3 4 - - 0.0
18/12:50am 18.6 17.2 9.5 55 5.0 E 7 11 4 6 - - 0.0
18/12:40am 18.9 17.1 9.4 54 5.2 E 9 11 5 6 - - 0.0
18/12:30am 19.1 16.9 9.4 53 5.4 E 11 13 6 7 - - 0.0
18/12:20am 18.9 16.8 8.1 49 5.8 E 9 11 5 6 - - 0.0
18/12:10am 18.0 16.1 7.4 50 5.6 ENE 7 9 4 5 - - 0.0
18/12:00am 17.0 15.5 7.0 51 5.2 N 4 7 2 4 - - 0.0
 
Date/Time
EST
Temp
°C
App
Temp
°C
Dew
Point
°C
Rel
Hum
%
Delta-T
°C
Wind Press
QNH
hPa
Press
MSL
hPa
Rain since
9am
mm
Dir  Spd
km/h
Gust
km/h
Spd
kts
Gust
kts
17/11:50pm 17.2 16.3 7.7 53 5.0 N 2 4 1 2 - - 0.0
17/11:40pm 17.7 16.6 7.0 49 5.6 NNE 2 4 1 2 - - 0.0
17/11:30pm 18.3 17.2 7.1 48 5.9 ENE 2 4 1 2 - - 0.0
17/11:20pm 19.0 17.5 7.0 45 6.3 ENE 4 7 2 4 - - 0.0
17/11:10pm 18.7 16.7 7.2 47 6.1 ENE 7 9 4 5 - - 0.0
17/11:00pm 17.9 16.1 7.3 50 5.6 NE 6 7 3 4 - - 0.0
17/10:50pm 19.0 17.7 7.8 48 6.0 NNE 4 7 2 4 - - 0.0
17/10:40pm 19.3 17.2 6.8 44 6.6 NE 7 9 4 5 - - 0.0
17/10:30pm 19.2 16.7 6.6 44 6.6 NE 9 9 5 5 - - 0.0
17/10:20pm 18.6 16.7 6.5 45 6.3 NE 6 9 3 5 - - 0.0
17/10:10pm 18.8 17.4 5.7 42 6.7 NE 2 4 1 2 - - 0.0
17/10:00pm 18.7 16.9 5.3 41 6.8 NNE 4 6 2 3 - - 0.0
17/09:50pm 18.3 16.3 6.4 45 6.2 NE 6 7 3 4 - - 0.0
17/09:40pm 18.4 17.4 7.4 48 5.8 N 2 7 1 4 - - 0.0
17/09:30pm 18.3 17.4 7.8 50 5.6 NNW 2 2 1 1 - - 0.0
17/09:20pm 17.6 17.5 9.5 59 4.4 CALM 0 2 0 1 - - 0.0
17/09:10pm 17.9 18.1 10.5 62 4.1 CALM 0 0 0 0 - - 0.0
17/09:00pm 18.5 18.9 11.2 62 4.2 CALM 0 2 0 1 - - 0.0
17/08:50pm 19.7 20.0 12.1 61 4.4 E 2 4 1 2 - - 0.0
17/08:40pm 19.8 19.1 8.7 48 6.1 E 2 6 1 3 - - 0.0
17/08:30pm 19.7 19.9 11.7 60 4.6 NNE 2 4 1 2 - - 0.0
17/08:20pm 20.1 19.8 11.3 57 5.1 NE 4 4 2 2 - - 0.0
17/08:10pm 20.2 19.7 12.0 59 4.8 E 6 6 3 3 - - 0.0
17/08:00pm 20.3 20.8 12.7 61 4.5 ENE 2 4 1 2 - - 0.0
17/07:50pm 20.5 21.0 12.9 61 4.5 NE 2 4 1 2 - - 0.0
17/07:40pm 20.6 21.1 14.0 66 4.0 NNE 4 11 2 6 - - 0.0
17/07:30pm 20.8 22.0 16.0 74 3.0 N 4 7 2 4 - - 0.0
17/07:20pm 20.9 22.4 16.6 76 2.7 NE 4 7 2 4 - - 0.0
17/07:10pm 21.1 22.1 16.3 74 3.0 ENE 6 7 3 4 - - 0.0
17/07:00pm 21.4 21.9 16.6 74 3.0 E 9 11 5 6 - - 0.0
17/06:50pm 21.7 22.2 16.6 73 3.2 E 9 13 5 7 - - 0.0
17/06:40pm 22.2 22.5 16.9 72 3.4 E 11 15 6 8 - - 0.0
17/06:30pm 22.7 22.9 16.8 69 3.8 E 11 11 6 6 - - 0.0
17/06:20pm 23.3 23.5 16.7 66 4.2 E 11 15 6 8 - - 0.0
17/06:10pm 23.9 23.6 16.4 63 4.8 E 13 15 7 8 - - 0.0
17/06:00pm 24.5 23.8 16.4 60 5.2 E 15 19 8 10 - - 0.0
17/05:50pm 25.0 24.3 16.4 59 5.5 E 15 19 8 10 - - 0.0
17/05:40pm 25.4 24.7 15.5 54 6.2 E 13 15 7 8 - - 0.0
17/05:30pm 25.8 25.0 16.2 55 6.1 E 15 19 8 10 - - 0.0
17/05:20pm 26.1 25.3 16.2 54 6.3 E 15 15 8 8 - - 0.0
17/05:10pm 26.3 25.3 15.7 52 6.7 E 15 19 8 10 - - 0.0
17/05:00pm 27.0 25.9 15.4 49 7.3 E 15 17 8 9 - - 0.0
17/04:50pm 27.3 25.9 14.5 45 8.0 E 15 17 8 9 - - 0.0
17/04:40pm 27.7 26.6 15.2 46 7.9 E 15 20 8 11 - - 0.0
17/04:30pm 28.1 26.8 14.8 44 8.4 E 15 17 8 9 - - 0.0
17/04:20pm 28.1 26.6 14.1 42 8.7 ENE 15 17 8 9 - - 0.0
17/04:10pm 28.2 26.3 14.2 42 8.7 E 17 19 9 10 - - 0.0
17/04:00pm 28.6 26.5 13.6 39 9.3 E 17 20 9 11 - - 0.0
17/03:50pm 28.8 26.3 12.4 36 10.0 E 17 22 9 12 - - 0.0
17/03:40pm 28.9 26.4 11.0 33 10.6 E 15 19 8 10 - - 0.0
17/03:30pm 29.3 26.6 11.6 33 10.6 E 17 19 9 10 - - 0.0
17/03:20pm 29.7 27.7 12.6 35 10.5 E 15 17 8 9 - - 0.0
17/03:10pm 29.4 26.8 10.7 31 11.1 E 15 17 8 9 - - 0.0
17/03:00pm 29.6 26.9 10.3 30 11.4 E 15 19 8 10 - - 0.0
17/02:50pm 29.6 27.3 11.7 33 10.8 E 15 19 8 10 - - 0.0
17/02:40pm 29.8 27.3 11.0 31 11.2 E 15 19 8 10 - - 0.0
17/02:30pm 29.9 27.1 10.1 29 11.7 E 15 17 8 9 - - 0.0
17/02:20pm 29.9 27.4 10.9 31 11.3 E 15 19 8 10 - - 0.0
17/02:10pm 29.9 27.7 12.0 33 10.9 E 15 19 8 10 - - 0.0
17/02:00pm 29.6 27.2 11.5 32 10.9 E 15 19 8 10 - - 0.0
17/01:50pm 29.9 28.0 11.7 32 11.0 E 13 19 7 10 - - 0.0
17/01:40pm 29.8 27.6 12.1 33 10.7 E 15 19 8 10 - - 0.0
17/01:30pm 30.3 28.2 11.2 30 11.5 E 13 15 7 8 - - 0.0
17/01:20pm 30.1 28.4 11.3 31 11.3 E 11 15 6 8 - - 0.0
17/01:10pm 30.2 28.0 10.9 30 11.5 ENE 13 17 7 9 - - 0.0
17/01:00pm 30.2 27.8 10.1 28 11.9 E 13 19 7 10 - - 0.0
17/12:50pm 30.0 28.1 10.6 30 11.5 E 11 15 6 8 - - 0.0
17/12:40pm 29.8 25.9 5.3 21 13.3 E 15 20 8 11 - - 0.0
17/12:30pm 29.9 27.8 11.0 31 11.3 E 13 20 7 11 - - 0.0
17/12:20pm 29.9 27.9 10.0 29 11.7 E 11 17 6 9 - - 0.0
17/12:10pm 29.8 27.4 9.9 29 11.7 ENE 13 19 7 10 - - 0.0
17/12:00pm 29.6 26.9 10.3 30 11.4 ENE 15 17 8 9 - - 0.0
17/11:50am 29.5 26.6 9.7 29 11.6 ENE 15 20 8 11 - - 0.0
17/11:40am 29.6 26.8 9.9 29 11.6 E 15 22 8 12 - - 0.0
17/11:30am 29.9 26.7 6.7 23 12.9 E 13 19 7 10 - - 0.0
17/11:20am 29.4 26.2 8.3 26 12.0 E 15 19 8 10 - - 0.0
17/11:10am 29.6 26.6 7.8 25 12.4 E 13 17 7 9 - - 0.0
17/11:00am 29.3 26.4 8.3 26 12.0 E 13 15 7 8 - - 0.0
17/10:50am 28.8 26.4 8.8 28 11.5 E 11 17 6 9 - - 0.0
17/10:40am 28.2 25.5 8.9 29 11.1 E 13 17 7 9 - - 0.0
17/10:30am 28.1 25.8 10.6 33 10.3 E 13 17 7 9 - - 0.0
17/10:20am 28.2 25.3 9.6 31 10.8 E 15 19 8 10 - - 0.0
17/10:10am 28.0 25.2 8.6 29 11.1 E 13 19 7 10 - - 0.0
17/10:00am 28.2 25.7 9.6 31 10.8 E 13 15 7 8 - - 0.0
17/09:50am 28.1 25.7 10.1 32 10.5 E 13 15 7 8 - - 0.0
17/09:40am 27.2 25.0 10.8 36 9.7 E 13 15 7 8 - - 0.0
17/09:30am 26.9 26.0 11.2 37 9.3 E 7 11 4 6 - - 0.0
17/09:20am 26.6 25.8 11.0 37 9.2 E 6 9 3 5 - - 0.0
17/09:10am 25.6 24.4 11.5 41 8.3 E 9 11 5 6 - - 0.0
17/09:00am 25.1 24.3 11.6 42 8.0 E 7 13 4 7 - - 0.0
17/08:50am 24.5 23.5 12.3 46 7.3 ESE 9 13 5 7 - - 0.0
17/08:40am 24.5 24.0 11.9 45 7.5 E 6 9 3 5 - - 0.0
17/08:30am 23.8 23.7 13.2 51 6.4 E 6 7 3 4 - - 0.0
17/08:20am 22.7 21.6 11.9 50 6.3 E 9 13 5 7 - - 0.0
17/08:10am 22.1 21.6 12.8 55 5.5 E 7 13 4 7 - - 0.0
17/08:00am 21.8 21.8 13.6 59 4.9 ESE 6 9 3 5 - - 0.0
17/07:50am 21.7 22.3 14.2 62 4.6 E 4 6 2 3 - - 0.0
17/07:40am 21.1 22.6 14.6 66 4.0 CALM 0 4 0 2 - - 0.0
17/07:30am 20.4 21.5 13.6 65 4.1 CALM 0 2 0 1 - - 0.0
17/07:20am 19.1 20.2 13.6 70 3.3 CALM 0 0 0 0 - - 0.0
17/07:10am 18.4 19.7 14.0 75 2.6 CALM 0 2 0 1 - - 0.0
17/07:00am 17.9 19.2 14.1 78 2.3 CALM 0 2 0 1 - - 0.0
17/06:50am 17.0 17.8 13.7 81 2.0 E 2 4 1 2 - - 0.0
17/06:40am 16.0 17.1 13.6 86 1.4 CALM 0 0 0 0 - - 0.0
17/06:30am 15.2 15.4 13.0 87 1.3 ENE 4 6 2 3 - - 0.0
17/06:20am 14.7 14.7 12.5 87 1.3 ENE 4 6 2 3 - - 0.0
17/06:10am 14.6 15.0 12.5 87 1.2 NE 2 6 1 3 - - 0.0
17/06:00am 15.0 15.1 12.8 87 1.3 NE 4 4 2 2 - - 0.0
17/05:50am 15.7 16.7 13.3 86 1.4 CALM 0 0 0 0 - - 0.0
17/05:40am 16.1 16.7 13.2 83 1.7 SSW 2 6 1 3 - - 0.0
17/05:30am 16.4 16.4 13.6 83 1.6 SSW 6 7 3 4 - - 0.0
17/05:20am 16.7 16.5 13.5 81 1.9 SW 7 11 4 6 - - 0.0
17/05:10am 16.8 16.5 13.2 79 2.1 ESE 7 13 4 7 - - 0.0
17/05:00am 16.5 15.9 13.4 82 1.8 E 9 11 5 6 - - 0.0
17/04:50am 16.4 16.2 13.6 83 1.6 ENE 7 11 4 6 - - 0.0
17/04:40am 16.2 16.1 13.8 86 1.4 ENE 7 9 4 5 - - 0.0
17/04:30am 16.3 15.7 14.5 89 1.1 E 11 11 6 6 - - 0.0
17/04:20am 16.3 15.4 14.8 91 0.9 E 13 15 7 8 - - 0.0
17/04:10am 16.3 15.8 14.8 91 0.9 E 11 15 6 8 - - 0.0
17/04:00am 16.3 15.5 15.0 92 0.8 E 13 15 7 8 - - 0.0
17/03:50am 16.4 15.2 15.0 91 0.8 E 15 17 8 9 - - 0.0
17/03:40am 16.4 14.8 15.0 91 0.8 E 17 19 9 10 - - 0.0
17/03:30am 16.4 15.1 14.8 90 1.0 E 15 17 8 9 - - 0.0
17/03:20am 16.4 15.5 14.9 91 0.9 E 13 15 7 8 - - 0.0
17/03:10am 16.5 16.0 14.9 90 1.0 E 11 11 6 6 - - 0.0
17/03:00am 16.4 15.9 14.8 90 1.0 E 11 13 6 7 - - 0.0
17/02:50am 16.4 16.2 14.7 90 1.0 ENE 9 11 5 6 - - 0.0
17/02:40am 16.4 16.6 14.7 90 1.0 ENE 7 11 4 6 - - 0.0
17/02:30am 16.4 16.6 14.8 90 1.0 ENE 7 9 4 5 - - 0.0
17/02:20am 16.4 16.2 14.8 90 1.0 NE 9 13 5 7 - - 0.0
17/02:10am 16.4 16.2 14.8 90 1.0 ENE 9 11 5 6 - - 0.0
17/02:00am 16.4 15.9 14.8 90 1.0 E 11 15 6 8 - - 0.0
17/01:50am 16.4 15.5 14.8 90 1.0 E 13 15 7 8 - - 0.0
17/01:40am 16.3 15.4 14.9 91 0.8 E 13 15 7 8 - - 0.0
17/01:30am 16.2 16.5 15.1 93 0.7 ENE 7 11 4 6 - - 0.0
17/01:20am 16.1 16.4 14.9 93 0.7 NE 7 11 4 6 - - 0.0
17/01:10am 16.2 16.5 15.0 93 0.7 NE 7 11 4 6 - - 0.0
17/01:00am 16.2 16.7 15.0 93 0.7 ENE 6 11 3 6 - - 0.0
17/12:50am 16.2 16.5 15.0 93 0.7 NE 7 11 4 6 - - 0.0
17/12:40am 16.2 16.5 15.0 93 0.7 NE 7 11 4 6 - - 0.0
17/12:30am 16.2 16.4 14.8 91 0.8 NE 7 11 4 6 - - 0.0
17/12:20am 16.2 16.4 14.3 88 1.1 NE 6 11 3 6 - - 0.0
17/12:10am 16.2 16.7 13.9 86 1.4 NE 4 7 2 4 - - 0.0
17/12:00am 16.1 16.6 14.0 87 1.2 NNE 4 9 2 5 - - 0.0
 
Date/Time
EST
Temp
°C
App
Temp
°C
Dew
Point
°C
Rel
Hum
%
Delta-T
°C
Wind Press
QNH
hPa
Press
MSL
hPa
Rain since
9am
mm
Dir  Spd
km/h
Gust
km/h
Spd
kts
Gust
kts
16/11:50pm 16.2 16.8 14.2 88 1.2 NE 4 7 2 4 - - 0.0
16/11:40pm 16.5 16.2 14.5 88 1.2 NNE 9 11 5 6 - - 0.0
16/11:30pm 16.5 16.7 14.6 88 1.1 NNE 7 9 4 5 - - 0.0
16/11:20pm 16.7 16.9 14.7 88 1.2 NNE 7 13 4 7 - - 0.0
16/11:10pm 16.7 16.9 14.7 88 1.2 NNE 7 9 4 5 - - 0.0
16/11:00pm 16.9 17.1 14.8 87 1.3 NNE 7 9 4 5 - - 0.0
16/10:50pm 16.9 17.0 14.4 85 1.5 NE 7 9 4 5 - - 0.0
16/10:40pm 16.8 16.9 14.0 83 1.7 ENE 6 9 3 5 - - 0.0
16/10:30pm 17.0 17.0 14.1 83 1.7 ENE 7 9 4 5 - - 0.0
16/10:20pm 17.2 16.8 15.1 87 1.3 E 11 15 6 8 - - 0.0
16/10:10pm 17.3 16.8 15.0 86 1.4 E 11 13 6 7 - - 0.0
16/10:00pm 17.2 17.1 15.0 87 1.3 E 9 13 5 7 - - 0.0
16/09:50pm 17.4 17.9 15.6 89 1.1 E 7 9 4 5 - - 0.0
16/09:40pm 17.6 16.8 16.1 91 0.9 E 15 17 8 9 - - 0.0
16/09:30pm 17.6 17.9 16.1 91 0.9 E 9 13 5 7 - - 0.0
16/09:20pm 17.8 18.6 16.4 91 0.9 ENE 7 9 4 5 - - 0.0
16/09:10pm 18.0 19.1 16.6 91 0.9 NNE 6 7 3 4 - - 0.0
16/09:00pm 18.1 19.3 16.8 92 0.8 NNE 6 7 3 4 - - 0.0
16/08:50pm 18.2 19.5 17.0 93 0.8 NE 6 7 3 4 - - 0.0
16/08:40pm 18.3 19.4 17.1 93 0.8 NE 7 9 4 5 - - 0.0
16/08:30pm 18.4 19.5 17.2 93 0.8 NE 7 9 4 5 - - 0.0
16/08:20pm 18.6 19.4 17.3 92 0.8 ENE 9 11 5 6 - - 0.0
16/08:10pm 18.7 19.1 17.3 91 0.9 ENE 11 15 6 8 - - 0.0
16/08:00pm 18.8 20.6 17.3 91 0.9 ENE 4 6 2 3 - - 0.0
16/07:50pm 19.0 19.5 17.5 91 1.0 ENE 11 13 6 7 - - 0.0
16/07:40pm 19.1 19.6 17.5 90 1.0 ENE 11 15 6 8 - - 0.0
16/07:30pm 19.3 20.3 17.7 90 1.0 ENE 9 13 5 7 - - 0.0
16/07:20pm 19.5 20.1 17.7 89 1.1 ENE 11 15 6 8 - - 0.0
16/07:10pm 19.7 20.7 17.8 89 1.2 ENE 9 13 5 7 - - 0.0
16/07:00pm 20.1 21.4 17.6 85 1.6 ENE 7 9 4 5 - - 0.0
16/06:50pm 20.4 21.3 17.6 84 1.8 ENE 9 13 5 7 - - 0.0
16/06:40pm 20.7 22.0 17.5 82 2.0 ENE 7 9 4 5 - - 0.0
16/06:30pm 21.2 22.4 17.4 79 2.4 ENE 7 13 4 7 - - 0.0
16/06:20pm 21.9 22.6 17.0 73 3.1 ENE 9 13 5 7 - - 0.0
16/06:10pm 22.5 22.8 16.9 70 3.6 ENE 11 13 6 7 - - 0.0
16/06:00pm 23.1 23.0 16.9 68 4.0 E 13 17 7 9 - - 0.0
16/05:50pm 23.7 23.4 16.5 64 4.6 E 13 19 7 10 - - 0.0
16/05:40pm 24.2 24.0 16.6 62 4.8 E 13 17 7 9 - - 0.0
16/05:30pm 24.7 24.4 16.5 60 5.2 E 13 15 7 8 - - 0.0
16/05:20pm 24.9 24.1 16.2 58 5.5 E 15 19 8 10 - - 0.0
16/05:10pm 25.3 24.7 15.7 55 6.1 E 13 17 7 9 - - 0.0
16/05:00pm 25.6 24.5 15.4 53 6.4 E 15 17 8 9 - - 0.0
16/04:50pm 26.2 25.0 15.0 50 7.0 E 15 17 8 9 - - 0.0
16/04:40pm 26.5 25.5 14.7 48 7.4 E 13 15 7 8 - - 0.0
16/04:30pm 26.5 25.1 14.5 47 7.5 E 15 19 8 10 - - 0.0
16/04:20pm 26.7 25.3 14.5 47 7.6 E 15 19 8 10 - - 0.0
16/04:10pm 27.0 25.5 14.3 45 7.9 E 15 19 8 10 - - 0.0
16/04:00pm 27.2 25.9 13.7 43 8.3 E 13 19 7 10 - - 0.0
16/03:50pm 27.2 25.5 13.7 43 8.3 E 15 20 8 11 - - 0.0
16/03:40pm 27.4 26.0 14.6 45 8.0 E 15 22 8 12 - - 0.0
16/03:30pm 27.4 25.7 14.7 45 8.0 E 17 20 9 11 - - 0.0
16/03:20pm 27.8 26.5 14.7 44 8.2 E 15 20 8 11 - - 0.0
16/03:10pm 27.6 25.9 14.7 45 8.1 E 17 20 9 11 - - 0.0
16/03:00pm 28.1 26.2 14.2 42 8.7 E 17 22 9 12 - - 0.0
16/02:50pm 28.5 27.1 14.5 42 8.8 ENE 15 22 8 12 - - 0.0
16/02:40pm 28.1 25.9 13.4 40 9.0 E 17 20 9 11 - - 0.0
16/02:30pm 28.4 26.6 14.4 42 8.8 E 17 22 9 12 - - 0.0
16/02:20pm 28.7 27.2 13.0 38 9.6 ENE 13 19 7 10 - - 0.0
16/02:10pm 28.6 26.1 11.2 34 10.4 E 15 19 8 10 - - 0.0
16/02:00pm 28.1 25.4 12.9 39 9.3 E 19 24 10 13 - - 0.0
16/01:50pm 28.2 25.9 13.0 39 9.3 E 17 22 9 12 - - 0.0
16/01:40pm 28.8 26.9 13.0 37 9.7 E 15 19 8 10 - - 0.0
16/01:30pm 28.9 27.3 12.9 37 9.8 ENE 13 19 7 10 - - 0.0
16/01:20pm 28.8 27.0 13.4 38 9.5 E 15 19 8 10 - - 0.0
16/01:10pm 28.9 26.3 10.6 32 10.8 E 15 20 8 11 - - 0.0
16/01:00pm 29.1 27.2 11.7 34 10.5 ENE 13 17 7 9 - - 0.0
16/12:50pm 28.8 27.2 12.7 37 9.8 NE 13 17 7 9 - - 0.0
16/12:40pm 27.8 25.5 11.9 37 9.5 E 15 19 8 10 - - 0.0
16/12:30pm 28.2 25.7 11.2 34 10.1 ENE 15 20 8 11 - - 0.0
16/12:20pm 28.0 25.3 10.5 33 10.3 E 15 19 8 10 - - 0.0
16/12:10pm 28.2 25.8 11.3 35 10.1 E 15 17 8 9 - - 0.0
16/12:00pm 28.1 25.4 10.5 33 10.4 E 15 19 8 10 - - 0.0
16/11:50am 28.0 26.0 11.6 36 9.8 ENE 13 19 7 10 - - 0.0
16/11:40am 27.5 25.7 12.0 38 9.3 E 13 17 7 9 - - 0.0
16/11:30am 26.9 24.1 11.5 38 9.2 E 17 19 9 10 - - 0.0
16/11:20am 26.8 24.6 12.0 39 8.9 E 15 20 8 11 - - 0.0
16/11:10am 26.5 24.5 12.6 42 8.4 E 15 19 8 10 - - 0.0
16/11:00am 25.9 24.2 12.6 43 8.0 E 13 17 7 9 - - 0.0
16/10:50am 25.4 23.8 14.0 49 7.0 E 15 19 8 10 - - 0.0
16/10:40am 25.3 23.4 14.2 50 6.8 E 17 20 9 11 - - 0.0
16/10:30am 24.9 23.3 14.0 50 6.7 E 15 22 8 12 - - 0.0
16/10:20am 24.5 23.1 14.4 53 6.2 E 15 20 8 11 - - 0.0
16/10:10am 24.1 22.9 14.1 53 6.1 E 13 19 7 10 - - 0.0
16/10:00am 23.9 22.1 14.5 55 5.8 ENE 17 22 9 12 - - 0.0
16/09:50am 23.6 21.8 14.5 56 5.6 ENE 17 20 9 11 - - 0.0
16/09:40am 23.5 22.0 14.1 55 5.7 E 15 19 8 10 - - 0.0
16/09:30am 23.0 21.3 14.6 59 5.2 E 17 19 9 10 - - 0.0
16/09:20am 23.2 22.1 14.3 57 5.5 ENE 13 17 7 9 - - 0.0
16/09:10am 22.9 22.6 15.5 63 4.6 ENE 11 15 6 8 - - 0.0
16/09:00am 22.3 21.1 15.1 63 4.5 E 15 19 8 10 - - 0.0
16/08:50am 22.1 20.6 15.2 65 4.3 E 17 22 9 12 - - 0.0
16/08:40am 21.6 19.7 15.3 67 3.9 E 19 22 10 12 - - 0.0
16/08:30am 21.3 19.5 15.5 69 3.6 E 19 20 10 11 - - 0.0
16/08:20am 20.8 19.4 15.6 72 3.2 E 17 20 9 11 - - 0.0
16/08:10am 20.4 18.8 15.1 71 3.3 E 17 20 9 11 - - 0.0
16/08:00am 20.0 19.0 15.5 75 2.8 ENE 15 20 8 11 - - 0.0
16/07:50am 19.7 18.4 15.8 78 2.4 E 17 19 9 10 - - 0.0
16/07:40am 19.3 18.3 15.5 78 2.3 E 15 17 8 9 - - 0.0
16/07:30am 18.7 17.4 15.8 83 1.8 E 17 19 9 10 - - 0.0
16/07:20am 18.7 17.8 15.9 84 1.7 E 15 19 8 10 - - 0.0
16/07:10am 18.4 17.8 15.6 84 1.7 E 13 17 7 9 - - 0.0
16/07:00am 18.0 17.4 15.7 86 1.4 E 13 15 7 8 - - 0.0
16/06:50am 17.6 17.0 15.7 89 1.2 E 13 15 7 8 - - 0.0
16/06:40am 17.2 16.9 15.4 89 1.1 E 11 13 6 7 - - 0.0
16/06:30am 16.1 16.9 14.9 93 0.7 NE 4 11 2 6 - - 0.0
16/06:20am 15.1 15.8 13.3 89 1.0 NNW 2 4 1 2 - - 0.0
16/06:10am 15.9 16.2 14.4 91 0.9 ENE 6 9 3 5 - - 0.0
16/06:00am 16.2 16.5 15.0 93 0.7 ENE 7 9 4 5 - - 0.0
16/05:50am 16.0 16.8 14.8 93 0.7 NE 4 6 2 3 - - 0.0
16/05:40am 16.0 16.7 14.6 91 0.8 NE 4 7 2 4 - - 0.0
16/05:30am 16.2 16.7 14.9 92 0.8 NE 6 7 3 4 - - 0.0
16/05:20am 16.3 17.5 14.9 91 0.8 WNW 2 7 1 4 - - 0.0
16/05:10am 16.3 17.1 14.8 91 0.9 WSW 4 6 2 3 - - 0.0
16/05:00am 16.4 16.6 14.8 90 1.0 ENE 7 11 4 6 - - 0.0
16/04:50am 16.4 16.7 15.1 92 0.8 ENE 7 15 4 8 - - 0.0
16/04:40am 16.6 16.6 15.2 91 0.8 E 9 13 5 7 - - 0.0
16/04:30am 16.7 16.3 15.3 91 0.8 E 11 13 6 7 - - 0.0
16/04:20am 16.6 16.6 15.3 92 0.8 ENE 9 11 5 6 - - 0.0
16/04:00am 16.5 16.5 15.1 91 0.8 ENE 9 13 5 7 - - 0.0
16/03:50am 16.6 16.2 15.1 91 0.9 ENE 11 13 6 7 - - 0.0
16/03:40am 16.7 15.9 15.2 91 0.9 ENE 13 17 7 9 - - 0.0
16/03:30am 16.9 15.8 15.3 90 1.0 ENE 15 17 8 9 - - 0.0
16/03:20am 16.9 16.2 15.3 90 1.0 E 13 17 7 9 - - 0.0
16/03:10am 16.8 16.5 15.4 91 0.9 ENE 11 17 6 9 - - 0.0
16/03:00am 16.9 15.5 15.5 91 0.9 E 17 20 9 11 - - 0.0
16/02:50am 16.7 15.7 15.5 93 0.7 ENE 15 17 8 9 - - 0.0
16/02:40am 16.7 15.2 15.4 92 0.8 E 17 19 9 10 - - 0.0
16/02:30am 16.7 15.6 15.3 91 0.8 E 15 17 8 9 - - 0.0
16/02:20am 16.8 16.4 15.3 91 0.9 E 11 15 6 8 - - 0.0
16/02:10am 16.8 16.1 15.4 91 0.9 E 13 17 7 9 - - 0.0
16/02:00am 16.8 16.1 15.4 91 0.9 E 13 17 7 9 - - 0.0
16/01:50am 16.9 15.8 15.4 91 0.9 E 15 17 8 9 - - 0.0
16/01:40am 17.0 16.0 15.5 91 0.9 ENE 15 17 8 9 - - 0.0
16/01:30am 16.9 16.6 15.5 91 0.9 ENE 11 17 6 9 - - 0.0
16/01:20am 17.0 16.7 15.5 91 0.9 ENE 11 19 6 10 - - 0.0
16/01:10am 17.2 15.5 15.7 91 0.9 E 19 20 10 11 - - 0.0
16/01:00am 17.3 16.0 15.9 91 0.9 E 17 20 9 11 - - 0.0
16/12:50am 17.2 17.4 15.8 91 0.9 SE 9 17 5 9 - - 0.0
16/12:40am 17.0 17.4 15.3 90 1.0 E 7 11 4 6 - - 0.0
16/12:30am 17.0 16.6 15.3 90 1.0 E 11 13 6 7 - - 0.0
16/12:20am 17.0 16.7 15.4 90 1.0 E 11 15 6 8 - - 0.0
16/12:00am 17.0 17.0 15.3 90 1.0 E 9 15 5 8 - - 0.0
 
Date/Time
EST
Temp
°C
App
Temp
°C
Dew
Point
°C
Rel
Hum
%
Delta-T
°C
Wind Press
QNH
hPa
Press
MSL
hPa
Rain since
9am
mm
Dir  Spd
km/h
Gust
km/h
Spd
kts
Gust
kts
15/11:50pm 17.1 16.4 15.3 89 1.1 E 13 15 7 8 - - 0.0
15/11:40pm 17.2 16.5 15.3 88 1.2 E 13 15 7 8 - - 0.0
15/11:30pm 17.2 16.1 15.3 88 1.2 E 15 17 8 9 - - 0.0
15/11:20pm 17.2 16.1 15.3 88 1.2 E 15 17 8 9 - - 0.0
15/11:10pm 17.2 16.4 15.2 88 1.2 E 13 15 7 8 - - 0.0
15/11:00pm 17.2 16.1 15.3 88 1.2 E 15 17 8 9 - - 0.0
15/10:50pm 17.3 15.8 15.2 87 1.3 E 17 19 9 10 - - 0.0
15/10:40pm 17.3 15.8 15.3 88 1.2 E 17 19 9 10 - - 0.0
15/10:30pm 17.2 16.2 15.6 90 1.0 E 15 19 8 10 - - 0.0
15/10:20pm 17.1 16.9 15.6 91 0.9 ENE 11 17 6 9 - - 0.0
15/10:10pm 17.1 16.9 15.6 91 0.9 ENE 11 13 6 7 - - 0.0
15/10:00pm 17.2 16.6 15.6 90 1.0 ENE 13 17 7 9 - - 0.0
15/09:50pm 17.3 16.3 15.7 90 1.0 ENE 15 19 8 10 - - 0.0
15/09:40pm 17.3 15.9 15.6 90 1.0 E 17 24 9 13 - - 0.0
15/09:30pm 17.3 15.9 15.5 89 1.1 E 17 19 9 10 - - 0.0
15/09:20pm 17.5 16.0 15.4 87 1.3 E 17 20 9 11 - - 0.0
15/09:10pm 17.7 16.0 15.8 89 1.2 ENE 19 20 10 11 - - 0.0
15/09:00pm 17.6 15.8 15.6 88 1.2 ENE 19 22 10 12 - - 0.0
15/08:50pm 17.6 16.3 15.7 89 1.2 ENE 17 19 9 10 - - 0.0
15/08:40pm 17.6 16.1 15.4 87 1.3 ENE 17 22 9 12 - - 0.0
15/08:30pm 17.7 17.1 15.7 88 1.2 ENE 13 19 7 10 - - 0.0
15/08:20pm 17.7 17.1 15.7 88 1.2 ENE 13 19 7 10 - - 0.0
15/08:10pm 17.7 17.1 15.7 88 1.2 ENE 13 17 7 9 - - 0.0
15/08:00pm 17.8 17.2 15.6 87 1.3 ENE 13 17 7 9 - - 0.0
15/07:50pm 17.8 17.6 15.6 87 1.3 ENE 11 15 6 8 - - 0.0
15/07:40pm 18.0 17.4 15.6 86 1.5 ENE 13 19 7 10 - - 0.0
15/07:30pm 18.1 17.9 15.8 86 1.4 ENE 11 13 6 7 - - 0.0
15/07:20pm 18.3 18.1 15.8 85 1.5 ENE 11 13 6 7 - - 0.0
15/07:00pm 18.6 18.5 16.1 85 1.6 NE 11 13 6 7 - - 0.0
15/06:50pm 18.8 18.7 16.1 84 1.7 NE 11 15 6 8 - - 0.0
15/06:40pm 19.1 19.4 16.1 83 1.9 ENE 9 13 5 7 - - 0.0
15/06:30pm 19.5 19.9 16.3 82 2.0 ENE 9 11 5 6 - - 0.0
15/06:20pm 20.1 20.2 16.4 79 2.3 ENE 11 13 6 7 - - 0.0
15/06:00pm 21.4 21.5 16.6 74 3.0 ENE 11 15 6 8 - - 0.0
15/05:50pm 22.0 21.7 16.5 71 3.5 ENE 13 15 7 8 - - 0.0
15/05:40pm 22.7 22.8 16.4 67 4.0 ENE 11 15 6 8 - - 0.0
15/05:30pm 23.2 22.9 16.4 65 4.3 ENE 13 17 7 9 - - 0.0
15/05:20pm 23.4 22.7 16.4 64 4.4 E 15 19 8 10 - - 0.0
15/05:10pm 23.9 23.1 16.0 61 5.0 E 15 24 8 13 - - 0.0
15/05:00pm 24.3 23.2 15.2 57 5.7 E 15 20 8 11 - - 0.0
15/04:50pm 24.6 23.1 15.2 55 5.9 E 17 20 9 11 - - 0.0
15/04:40pm 24.9 22.9 15.0 54 6.2 E 19 22 10 12 - - 0.0
15/04:30pm 25.3 23.6 14.6 51 6.6 E 17 22 9 12 - - 0.0
15/04:20pm 25.6 24.1 15.2 52 6.5 E 17 24 9 13 - - 0.0
15/04:00pm 26.2 24.2 14.0 47 7.5 E 17 20 9 11 - - 0.0
15/03:50pm 26.6 24.7 14.2 46 7.7 E 17 20 9 11 - - 0.0
15/03:40pm 26.7 25.0 14.6 47 7.5 E 17 20 9 11 - - 0.0
15/03:30pm 27.0 24.7 13.1 42 8.5 ENE 17 20 9 11 - - 0.0
15/03:20pm 27.4 25.1 13.0 41 8.8 E 17 20 9 11 - - 0.0
15/03:10pm 27.5 25.3 13.2 41 8.8 E 17 20 9 11 - - 0.0
15/03:00pm 27.7 25.6 13.6 42 8.7 E 17 22 9 12 - - 0.0
15/02:50pm 27.9 25.9 12.8 39 9.2 E 15 22 8 12 - - 0.0
15/02:40pm 27.5 25.0 13.6 42 8.6 E 19 22 10 12 - - 0.0
15/02:30pm 28.1 25.8 13.0 39 9.2 E 17 24 9 13 - - 0.0
15/02:20pm 28.6 26.9 12.5 37 9.8 E 13 19 7 10 - - 0.0
15/02:10pm 28.5 26.7 13.2 39 9.4 E 15 17 8 9 - - 0.0
15/02:00pm 28.4 26.4 10.1 32 10.7 E 11 15 6 8 - - 0.0
15/01:50pm 28.0 26.1 11.7 36 9.8 E 13 15 7 8 - - 0.0

Other formats

Comma delimited format used in spreadsheet applications
http://www.bom.gov.au/fwo/IDQ60801/IDQ60801.99124.axf

JavaScript Object Notation format (JSON) in row-major order
http://www.bom.gov.au/fwo/IDQ60801/IDQ60801.99124.json

Data quality

Most of these data are generated automatically and are frequently updated. Quality checks on data are not normally performed. It is possible for incorrect values to appear. Refer to information at About Latest Weather Observations and please check the disclaimer before using these data.